Time;durP1;ratioP1;P1;durP2;ratioP2;P2;SDS_P1;SDS_P2;PMS_P1;PMS_P2;Temp;Humidity;BMP_temperature;BMP_pressure;BME280_temperature;BME280_humidity;BME280_pressure;Samples;Min_cycle;Max_cycle;Signal;HPM_P1;HPM_P2
2022/04/27 00:01:38;;;;;;;13.75;11.68;;;;;;;;;;5072441;28;20393;-80
2022/04/27 00:04:10;;;;;;;26.15;18.00;;;;;;;;;;5051430;28;20568;-80
2022/04/27 00:06:40;;;;;;;17.65;13.60;;;;;;;;;;5071463;28;20122;-80
2022/04/27 00:09:11;;;;;;;17.20;13.07;;;;;;;;;;5070098;28;20115;-80
2022/04/27 00:11:41;;;;;;;28.48;16.80;;;;;;;;;;5032152;28;20049;-79
2022/04/27 00:14:10;;;;;;;20.25;12.90;;;;;;;;;;5051176;28;20067;-80
2022/04/27 00:16:38;;;;;;;18.13;13.35;;;;;;;;;;5050721;28;20048;-80
2022/04/27 00:19:08;;;;;;;23.45;14.07;;;;;;;;;;5069939;28;20044;-80
2022/04/27 00:21:35;;;;;;;16.23;12.57;;;;;;;;;;5050708;28;20072;-80
2022/04/27 00:24:03;;;;;;;16.30;12.90;;;;;;;;;;5069175;28;20041;-79
2022/04/27 00:26:30;;;;;;;18.67;13.73;;;;;;;;;;5068227;28;20071;-79
2022/04/27 00:28:57;;;;;;;16.23;12.63;;;;;;;;;;5032679;28;20455;-80
2022/04/27 00:31:25;;;;;;;17.33;11.95;;;;;;;;;;5044827;28;20605;-79
2022/04/27 00:33:52;;;;;;;18.58;13.38;;;;;;;;;;5069120;28;20045;-80
2022/04/27 00:36:20;;;;;;;26.35;14.63;;;;;;;;;;5069393;28;20052;-80
2022/04/27 00:38:52;;;;;;;20.58;12.05;;;;;;;;;;5069211;28;20052;-80
2022/04/27 00:41:19;;;;;;;13.02;10.07;;;;;;;;;;5049305;28;20040;-80
2022/04/27 00:43:48;;;;;;;24.40;16.48;;;;;;;;;;5067896;28;20064;-80
2022/04/27 00:46:17;;;;;;;10.15;8.68;;;;;;;;;;5064453;28;20038;-81
2022/04/27 00:48:45;;;;;;;12.82;9.80;;;;;;;;;;5050638;28;20090;-79
2022/04/27 00:51:18;;;;;;;19.08;12.75;;;;;;;;;;5067810;28;20187;-78
2022/04/27 00:53:46;;;;;;;22.65;14.20;;;;;;;;;;5049554;28;20040;-79
2022/04/27 00:56:21;;;;;;;22.75;13.43;;;;;;;;;;5066251;28;20063;-79
2022/04/27 00:59:01;;;;;;;25.15;15.25;;;;;;;;;;5049786;28;20040;-79
2022/04/27 01:01:30;;;;;;;27.98;16.25;;;;;;;;;;5043534;28;20551;-79
2022/04/27 01:04:04;;;;;;;28.48;15.52;;;;;;;;;;5031170;28;20054;-79
2022/04/27 01:06:37;;;;;;;22.42;15.18;;;;;;;;;;5048316;28;20036;-80
2022/04/27 01:09:11;;;;;;;23.52;14.60;;;;;;;;;;5066036;28;20056;-79
2022/04/27 01:11:39;;;;;;;23.30;14.07;;;;;;;;;;5062810;28;20044;-79
2022/04/27 01:14:06;;;;;;;18.67;13.88;;;;;;;;;;5048078;28;20056;-80
2022/04/27 01:16:39;;;;;;;17.27;11.93;;;;;;;;;;5030503;28;20052;-79
2022/04/27 01:19:09;;;;;;;16.85;12.23;;;;;;;;;;5029230;28;20493;-79
2022/04/27 01:21:39;;;;;;;11.02;9.60;;;;;;;;;;5040989;28;20052;-79
2022/04/27 01:24:07;;;;;;;19.55;13.20;;;;;;;;;;5060638;28;20050;-80
2022/04/27 01:26:39;;;;;;;18.88;13.63;;;;;;;;;;5062611;28;20040;-79
2022/04/27 01:29:07;;;;;;;19.83;13.27;;;;;;;;;;5051394;28;20041;-79
2022/04/27 01:31:34;;;;;;;21.08;13.77;;;;;;;;;;5045610;28;20044;-79
2022/04/27 01:34:02;;;;;;;13.45;11.38;;;;;;;;;;5045343;28;20105;-79
2022/04/27 01:36:29;;;;;;;18.55;13.05;;;;;;;;;;5047462;28;20195;-79
2022/04/27 01:38:56;;;;;;;20.55;13.77;;;;;;;;;;5061417;28;20049;-79
2022/04/27 01:41:26;;;;;;;18.50;13.93;;;;;;;;;;5040888;28;20082;-79
2022/04/27 01:43:59;;;;;;;17.63;13.35;;;;;;;;;;5066211;28;20049;-78
2022/04/27 01:46:27;;;;;;;16.38;11.63;;;;;;;;;;5063940;28;20037;-79
2022/04/27 01:48:55;;;;;;;20.45;14.60;;;;;;;;;;5048287;28;20036;-79
2022/04/27 01:54:22;;;;;;;23.48;15.02;;;;;;;;;;5064533;28;20083;-79
2022/04/27 01:56:51;;;;;;;21.98;14.38;;;;;;;;;;5029560;28;20147;-78
2022/04/27 01:59:24;;;;;;;19.65;13.35;;;;;;;;;;5027902;28;20052;-78
2022/04/27 02:01:53;;;;;;;22.95;15.18;;;;;;;;;;5053196;28;20052;-79
2022/04/27 02:04:28;;;;;;;20.17;14.60;;;;;;;;;;5031735;28;20361;-78
2022/04/27 02:06:55;;;;;;;26.15;16.70;;;;;;;;;;5066246;28;20052;-79
2022/04/27 02:09:28;;;;;;;24.25;15.98;;;;;;;;;;5049447;28;20603;-78
2022/04/27 02:12:05;;;;;;;19.75;14.57;;;;;;;;;;5063159;28;20041;-78
2022/04/27 02:14:33;;;;;;;20.15;13.02;;;;;;;;;;5046952;28;20036;-78
2022/04/27 02:17:05;;;;;;;19.63;14.77;;;;;;;;;;5065166;28;20040;-78
2022/04/27 02:19:33;;;;;;;17.35;13.05;;;;;;;;;;5053196;28;20041;-78
2022/04/27 02:22:02;;;;;;;14.93;12.02;;;;;;;;;;5037122;28;20052;-78
2022/04/27 02:24:30;;;;;;;23.15;15.00;;;;;;;;;;5052489;28;20043;-78
2022/04/27 02:27:00;;;;;;;19.92;14.18;;;;;;;;;;5051870;28;20055;-78
2022/04/27 02:29:30;;;;;;;16.60;13.77;;;;;;;;;;5039331;28;20135;-79
2022/04/27 02:32:07;;;;;;;13.70;11.35;;;;;;;;;;5034547;28;20147;-79
2022/04/27 02:34:40;;;;;;;16.80;13.45;;;;;;;;;;5052633;28;20127;-78
2022/04/27 02:37:07;;;;;;;11.57;10.23;;;;;;;;;;5081359;28;20033;-79
2022/04/27 02:39:39;;;;;;;17.75;12.38;;;;;;;;;;5051198;28;20094;-79
2022/04/27 02:42:07;;;;;;;25.15;17.35;;;;;;;;;;5067272;28;20120;-79
2022/04/27 02:44:37;;;;;;;27.13;17.60;;;;;;;;;;5051150;28;20040;-78
2022/04/27 02:47:05;;;;;;;26.77;17.88;;;;;;;;;;5067454;28;20047;-78
2022/04/27 02:52:20;;;;;;;22.85;17.13;;;;;;;;;;5067905;28;20341;-79
2022/04/27 02:55:10;;;;;;;19.92;15.15;;;;;;;;;;5062683;28;20855;-79
2022/04/27 02:57:38;;;;;;;17.25;14.35;;;;;;;;;;5027008;28;20064;-79
2022/04/27 03:00:09;;;;;;;25.98;17.95;;;;;;;;;;5047904;28;20116;-79
2022/04/27 03:02:39;;;;;;;26.08;18.08;;;;;;;;;;5050657;28;20106;-79
2022/04/27 03:05:13;;;;;;;26.30;17.35;;;;;;;;;;5049229;28;20036;-79
2022/04/27 03:07:43;;;;;;;22.45;16.75;;;;;;;;;;5064789;28;20435;-79
2022/04/27 03:10:15;;;;;;;18.40;15.23;;;;;;;;;;5050567;28;20041;-79
2022/04/27 03:12:45;;;;;;;16.08;14.35;;;;;;;;;;5048096;28;20044;-79
2022/04/27 03:15:17;;;;;;;19.45;16.13;;;;;;;;;;5049821;28;20037;-79
2022/04/27 03:18:16;;;;;;;19.23;15.30;;;;;;;;;;5048079;28;20036;-78
2022/04/27 03:20:45;;;;;;;22.27;16.42;;;;;;;;;;5063559;28;20067;-78
2022/04/27 03:23:15;;;;;;;20.48;16.30;;;;;;;;;;5048278;28;20059;-79
2022/04/27 03:25:46;;;;;;;27.77;17.70;;;;;;;;;;5016120;28;20053;-78
2022/04/27 03:28:14;;;;;;;28.23;18.60;;;;;;;;;;5047842;28;20112;-78
2022/04/27 03:30:50;;;;;;;22.27;17.13;;;;;;;;;;5041794;28;20032;-78
2022/04/27 03:33:32;;;;;;;19.52;14.73;;;;;;;;;;5032766;28;20110;-78
2022/04/27 03:35:59;;;;;;;16.40;14.30;;;;;;;;;;5067123;28;20051;-79
2022/04/27 03:38:28;;;;;;;12.45;11.23;;;;;;;;;;5062465;28;20056;-78
2022/04/27 03:40:58;;;;;;;22.25;16.23;;;;;;;;;;5057585;28;20040;-78
2022/04/27 03:43:30;;;;;;;21.42;16.80;;;;;;;;;;5049607;28;20041;-78
2022/04/27 03:46:02;;;;;;;20.10;16.58;;;;;;;;;;5037143;28;20040;-79
2022/04/27 03:48:34;;;;;;;22.88;17.60;;;;;;;;;;5068629;28;20064;-79
2022/04/27 03:51:02;;;;;;;19.80;16.75;;;;;;;;;;5048389;28;20029;-78
2022/04/27 03:53:45;;;;;;;20.85;17.05;;;;;;;;;;5089266;22;20040;-79
2022/04/27 03:56:23;;;;;;;20.58;16.00;;;;;;;;;;5063624;28;20048;-79
2022/04/27 03:59:23;;;;;;;29.45;19.17;;;;;;;;;;5054497;28;20387;-78
2022/04/27 04:01:54;;;;;;;20.90;16.83;;;;;;;;;;5060888;28;20055;-79
2022/04/27 04:04:35;;;;;;;20.45;15.55;;;;;;;;;;5050281;28;20065;-79
2022/04/27 04:07:22;;;;;;;26.70;18.23;;;;;;;;;;5046744;28;20037;-79
2022/04/27 04:10:08;;;;;;;25.85;18.25;;;;;;;;;;5034238;28;20438;-78
2022/04/27 04:12:51;;;;;;;27.13;18.52;;;;;;;;;;5043194;28;20394;-78
2022/04/27 04:15:27;;;;;;;15.52;13.90;;;;;;;;;;5051843;28;20047;-78
2022/04/27 04:18:22;;;;;;;23.17;17.50;;;;;;;;;;5034451;28;20081;-79
2022/04/27 04:21:27;;;;;;;22.05;17.25;;;;;;;;;;5040181;28;20668;-79
2022/04/27 04:24:34;;;;;;;22.23;17.73;;;;;;;;;;5037897;28;20057;-78
2022/04/27 04:30:53;;;;;;;16.35;14.40;;;;;;;;;;5063661;28;20069;-79
2022/04/27 04:33:46;;;;;;;23.48;17.98;;;;;;;;;;5038958;28;20045;-79
2022/04/27 04:37:01;;;;;;;18.95;16.60;;;;;;;;;;5021219;28;20123;-78
2022/04/27 04:39:37;;;;;;;17.13;15.15;;;;;;;;;;5044361;28;20059;-78
2022/04/27 04:46:09;;;;;;;;;;;;;;;;;;;;;
2022/04/27 04:49:20;;;;;;;19.35;15.65;;;;;;;;;;5075934;28;20071;-78
2022/04/27 04:51:59;;;;;;;14.85;13.32;;;;;;;;;;5085600;28;20124;-78
2022/04/27 04:54:48;;;;;;;15.90;14.32;;;;;;;;;;5049055;28;20095;-79
2022/04/27 04:57:41;;;;;;;18.33;15.23;;;;;;;;;;5067618;28;21716;-79
2022/04/27 05:00:48;;;;;;;14.35;12.95;;;;;;;;;;5078853;28;20032;-77
2022/04/27 05:03:45;;;;;;;20.25;17.92;;;;;;;;;;5034506;28;20047;-79
2022/04/27 05:06:45;;;;;;;17.33;15.40;;;;;;;;;;5063614;28;20055;-79
2022/04/27 05:09:38;;;;;;;19.20;17.20;;;;;;;;;;5075910;28;20044;-78
2022/04/27 05:12:41;;;;;;;20.85;17.98;;;;;;;;;;5070918;28;20051;-79
2022/04/27 05:16:06;;;;;;;21.20;17.50;;;;;;;;;;4975718;28;20455;-79
2022/04/27 05:19:09;;;;;;;21.42;19.13;;;;;;;;;;4968518;28;20053;-80
2022/04/27 05:22:03;;;;;;;23.90;19.13;;;;;;;;;;5054983;28;20077;-79
2022/04/27 05:25:04;;;;;;;20.52;17.70;;;;;;;;;;5060529;28;20121;-79
2022/04/27 05:28:13;;;;;;;24.20;19.95;;;;;;;;;;5057111;28;20039;-79
2022/04/27 05:34:58;;;;;;;20.73;17.17;;;;;;;;;;5054951;28;20049;-78
2022/04/27 05:41:09;;;;;;;22.52;18.52;;;;;;;;;;5071148;28;20048;-79
2022/04/27 05:44:02;;;;;;;23.02;17.63;;;;;;;;;;5072043;28;20566;-78
2022/04/27 05:46:50;;;;;;;26.63;21.33;;;;;;;;;;5057911;28;20040;-78
2022/04/27 05:49:47;;;;;;;21.40;17.60;;;;;;;;;;5054814;28;20043;-77
2022/04/27 05:52:52;;;;;;;23.45;18.27;;;;;;;;;;5042521;28;20130;-79
2022/04/27 05:55:43;;;;;;;24.15;16.70;;;;;;;;;;5082980;28;20045;-79
2022/04/27 05:58:30;;;;;;;25.45;16.35;;;;;;;;;;5091207;28;20036;-79
2022/04/27 06:01:24;;;;;;;22.13;17.00;;;;;;;;;;5071199;28;20123;-78
2022/04/27 06:03:59;;;;;;;18.92;16.48;;;;;;;;;;5052968;28;20355;-79
2022/04/27 06:06:29;;;;;;;16.65;14.95;;;;;;;;;;5063031;28;20091;-79
2022/04/27 06:08:58;;;;;;;18.20;16.23;;;;;;;;;;5047917;28;20032;-79
2022/04/27 06:11:43;;;;;;;19.80;17.02;;;;;;;;;;5082061;28;20119;-79
2022/04/27 06:14:30;;;;;;;15.05;13.43;;;;;;;;;;5090858;28;20105;-78
2022/04/27 06:17:00;;;;;;;20.08;17.98;;;;;;;;;;5070860;28;20040;-79
2022/04/27 06:19:27;;;;;;;19.65;15.70;;;;;;;;;;5075335;28;20036;-79
2022/04/27 06:21:57;;;;;;;18.38;16.35;;;;;;;;;;5057542;28;20142;-77
2022/04/27 06:24:34;;;;;;;19.85;15.38;;;;;;;;;;5054096;28;20080;-79
2022/04/27 06:27:22;;;;;;;18.40;16.40;;;;;;;;;;5054986;28;20519;-80
2022/04/27 06:29:50;;;;;;;25.77;17.15;;;;;;;;;;5074202;28;20064;-77
2022/04/27 06:32:18;;;;;;;19.75;17.17;;;;;;;;;;5079542;28;20040;-79
2022/04/27 06:34:46;;;;;;;17.70;15.88;;;;;;;;;;5074483;28;20032;-78
2022/04/27 06:37:14;;;;;;;17.45;15.65;;;;;;;;;;5056940;28;20036;-78
2022/04/27 06:39:45;;;;;;;19.63;17.52;;;;;;;;;;5050905;28;20051;-79
2022/04/27 06:42:12;;;;;;;21.05;16.20;;;;;;;;;;5091690;28;20868;-81
2022/04/27 06:45:02;;;;;;;17.75;15.48;;;;;;;;;;5074566;28;20048;-79
2022/04/27 06:47:49;;;;;;;20.02;16.42;;;;;;;;;;5049032;28;20070;-80
2022/04/27 06:50:57;;;;;;;17.38;15.57;;;;;;;;;;5012176;28;20301;-79
2022/04/27 06:53:52;;;;;;;17.70;15.40;;;;;;;;;;5003709;28;20060;-79
2022/04/27 06:56:54;;;;;;;17.48;15.68;;;;;;;;;;5074950;28;20465;-79
2022/04/27 06:59:45;;;;;;;17.92;16.13;;;;;;;;;;5060834;28;20048;-79
2022/04/27 07:02:14;;;;;;;19.23;17.25;;;;;;;;;;5067810;28;20509;-79
2022/04/27 07:04:48;;;;;;;20.30;18.05;;;;;;;;;;5056321;28;20425;-78
2022/04/27 07:07:18;;;;;;;23.00;17.42;;;;;;;;;;5081471;28;20052;-79
2022/04/27 07:09:45;;;;;;;18.33;16.35;;;;;;;;;;5092711;28;20507;-79
2022/04/27 07:12:13;;;;;;;22.60;18.30;;;;;;;;;;5088352;28;20048;-80
2022/04/27 07:14:40;;;;;;;21.02;18.75;;;;;;;;;;5087547;28;20044;-80
2022/04/27 07:17:07;;;;;;;20.58;18.05;;;;;;;;;;5092929;28;20040;-79
2022/04/27 07:19:35;;;;;;;18.70;16.80;;;;;;;;;;5091545;28;20071;-79
2022/04/27 07:22:03;;;;;;;22.85;17.95;;;;;;;;;;5089590;28;20136;-81
2022/04/27 07:24:39;;;;;;;18.83;16.60;;;;;;;;;;5054503;28;20543;-80
2022/04/27 07:27:07;;;;;;;17.63;15.75;;;;;;;;;;5083808;28;20037;-80
2022/04/27 07:29:34;;;;;;;19.75;17.52;;;;;;;;;;5059140;28;20446;-80
2022/04/27 07:32:02;;;;;;;20.63;18.42;;;;;;;;;;5075179;28;20040;-79
2022/04/27 07:34:30;;;;;;;20.83;16.98;;;;;;;;;;5085355;28;20036;-80
2022/04/27 07:36:58;;;;;;;19.30;17.25;;;;;;;;;;5067824;28;20048;-80
2022/04/27 07:39:25;;;;;;;18.90;17.00;;;;;;;;;;5082481;28;20040;-79
2022/04/27 07:41:52;;;;;;;20.23;17.80;;;;;;;;;;5070331;28;20044;-80
2022/04/27 07:44:20;;;;;;;20.15;17.95;;;;;;;;;;5085269;28;20493;-79
2022/04/27 07:46:47;;;;;;;18.92;16.80;;;;;;;;;;5069962;28;20059;-80
2022/04/27 07:49:15;;;;;;;18.30;16.45;;;;;;;;;;5070133;28;20097;-81
2022/04/27 07:51:43;;;;;;;18.33;15.98;;;;;;;;;;5052373;28;20562;-79
2022/04/27 07:54:15;;;;;;;;;;;;;;;;;;5077949;28;20044;-79
2022/04/27 07:56:42;;;;;;;18.20;16.15;;;;;;;;;;5084182;28;19920;-79
2022/04/27 07:59:10;;;;;;;18.90;16.95;;;;;;;;;;5089550;28;20127;-79
2022/04/27 08:01:41;;;;;;;16.77;14.43;;;;;;;;;;5072616;28;20055;-80
2022/04/27 08:04:08;;;;;;;19.52;15.98;;;;;;;;;;5091054;28;20123;-81
2022/04/27 08:06:36;;;;;;;18.13;16.00;;;;;;;;;;5073934;28;20092;-78
2022/04/27 08:09:04;;;;;;;16.77;15.00;;;;;;;;;;5056742;28;20055;-79
2022/04/27 08:11:31;;;;;;;14.80;13.30;;;;;;;;;;5091626;28;20060;-80
2022/04/27 08:14:01;;;;;;;16.60;14.27;;;;;;;;;;5073525;28;20040;-82
2022/04/27 08:16:28;;;;;;;16.25;14.63;;;;;;;;;;5070280;28;20148;-79
2022/04/27 08:18:56;;;;;;;14.35;12.95;;;;;;;;;;5072789;28;20060;-80
2022/04/27 08:21:27;;;;;;;13.80;12.50;;;;;;;;;;5082884;28;20076;-80
2022/04/27 08:23:57;;;;;;;14.90;13.40;;;;;;;;;;5092268;28;20085;-79
2022/04/27 08:26:30;;;;;;;16.27;13.48;;;;;;;;;;5072653;28;20110;-79
2022/04/27 08:28:59;;;;;;;14.70;13.20;;;;;;;;;;5075909;28;20110;-79
2022/04/27 08:31:26;;;;;;;15.02;13.38;;;;;;;;;;5067168;28;20043;-79
2022/04/27 08:33:54;;;;;;;12.93;11.73;;;;;;;;;;5093279;28;20050;-80
2022/04/27 08:36:21;;;;;;;13.00;10.77;;;;;;;;;;5092694;28;20070;-80
2022/04/27 08:38:56;;;;;;;11.55;10.45;;;;;;;;;;5073881;28;20055;-79
2022/04/27 08:41:25;;;;;;;12.93;11.63;;;;;;;;;;5088149;28;20036;-79
2022/04/27 08:43:53;;;;;;;11.32;10.23;;;;;;;;;;5075195;28;20326;-79
2022/04/27 08:46:20;;;;;;;11.48;10.43;;;;;;;;;;5094017;28;20059;-79
2022/04/27 08:48:49;;;;;;;10.63;9.63;;;;;;;;;;5092633;28;20067;-79
2022/04/27 08:51:16;;;;;;;11.65;10.50;;;;;;;;;;5091738;28;20055;-79
2022/04/27 08:53:44;;;;;;;11.32;9.93;;;;;;;;;;5091335;28;20112;-79
2022/04/27 08:56:13;;;;;;;9.88;8.88;;;;;;;;;;5073355;28;20064;-79
2022/04/27 08:58:40;;;;;;;11.15;9.68;;;;;;;;;;5091993;28;20075;-79
2022/04/27 09:01:10;;;;;;;10.93;9.90;;;;;;;;;;5091584;28;20102;-79
2022/04/27 09:03:38;;;;;;;15.48;9.57;;;;;;;;;;5092075;28;20061;-79
2022/04/27 09:06:11;;;;;;;10.88;9.88;;;;;;;;;;5091127;28;20105;-80
2022/04/27 09:08:43;;;;;;;9.18;8.38;;;;;;;;;;5074344;28;20123;-79
2022/04/27 09:11:12;;;;;;;9.48;8.57;;;;;;;;;;5074369;28;20040;-79
2022/04/27 09:13:40;;;;;;;10.38;9.13;;;;;;;;;;5093342;28;20040;-81
2022/04/27 09:16:08;;;;;;;11.00;8.75;;;;;;;;;;5077119;28;20116;-79
2022/04/27 09:21:53;;;;;;;9.93;9.02;;;;;;;;;;5092447;28;20042;-79
2022/04/27 09:24:22;;;;;;;9.30;8.25;;;;;;;;;;5072838;28;20044;-79
2022/04/27 09:27:14;;;;;;;10.63;9.18;;;;;;;;;;5090375;28;20432;-79
2022/04/27 09:29:42;;;;;;;8.00;7.30;;;;;;;;;;5091097;28;20127;-79
2022/04/27 09:32:15;;;;;;;9.45;7.97;;;;;;;;;;5074254;28;20044;-80
2022/04/27 09:34:43;;;;;;;13.52;8.65;;;;;;;;;;5091930;28;20268;-79
2022/04/27 09:37:14;;;;;;;8.82;7.65;;;;;;;;;;5072947;28;20044;-78
2022/04/27 09:39:43;;;;;;;10.48;7.68;;;;;;;;;;5072846;28;20485;-78
2022/04/27 09:42:10;;;;;;;8.50;7.38;;;;;;;;;;5089377;28;20056;-79
2022/04/27 09:44:39;;;;;;;8.02;7.25;;;;;;;;;;5091056;28;20050;-79
2022/04/27 09:47:07;;;;;;;8.15;7.45;;;;;;;;;;5090088;28;20055;-79
2022/04/27 09:49:39;;;;;;;7.60;6.90;;;;;;;;;;5071983;28;20043;-80
2022/04/27 09:52:06;;;;;;;;;;;;;;;;;;5107549;22;20035;-83
2022/04/27 09:54:36;;;;;;;7.55;6.90;;;;;;;;;;5100186;28;20469;-81
2022/04/27 09:57:04;;;;;;;8.98;7.18;;;;;;;;;;5109641;28;20036;-82
2022/04/27 09:59:34;;;;;;;8.73;7.10;;;;;;;;;;5075306;28;20047;-83
2022/04/27 10:02:05;;;;;;;7.30;6.65;;;;;;;;;;5088495;28;20036;-83
2022/04/27 10:04:33;;;;;;;8.15;6.85;;;;;;;;;;5072009;28;20050;-82
2022/04/27 10:07:10;;;;;;;5.30;4.90;;;;;;;;;;5076576;22;20052;-86
2022/04/27 10:09:44;;;;;;;5.68;5.25;;;;;;;;;;5065646;28;20044;-86
2022/04/27 10:12:13;;;;;;;5.80;5.30;;;;;;;;;;5071052;28;20086;-85
2022/04/27 10:14:41;;;;;;;5.82;5.43;;;;;;;;;;5063237;28;20482;-85
2022/04/27 10:17:13;;;;;;;9.45;7.43;;;;;;;;;;5088190;22;20126;-79
2022/04/27 10:19:44;;;;;;;6.15;5.72;;;;;;;;;;5067451;28;20083;-79
2022/04/27 10:22:35;;;;;;;5.70;5.15;;;;;;;;;;5049390;28;20052;-80
2022/04/27 10:25:06;;;;;;;5.53;4.72;;;;;;;;;;5066338;28;20040;-80
2022/04/27 10:27:34;;;;;;;5.50;4.97;;;;;;;;;;5050176;28;20048;-79
2022/04/27 10:30:03;;;;;;;5.03;4.43;;;;;;;;;;5050077;28;20110;-78
2022/04/27 10:32:35;;;;;;;4.90;4.50;;;;;;;;;;5033223;28;20041;-78
2022/04/27 10:35:27;;;;;;;5.95;5.45;;;;;;;;;;5049642;28;20392;-78
2022/04/27 10:38:04;;;;;;;4.93;4.60;;;;;;;;;;5068352;28;20573;-77
2022/04/27 10:40:44;;;;;;;5.35;4.95;;;;;;;;;;5033761;28;20056;-80
2022/04/27 10:43:14;;;;;;;5.78;5.28;;;;;;;;;;5014625;28;20158;-79
2022/04/27 10:45:41;;;;;;;5.50;5.00;;;;;;;;;;5033860;28;20040;-78
2022/04/27 10:48:28;;;;;;;4.75;4.35;;;;;;;;;;5043271;28;20063;-81
2022/04/27 10:51:21;;;;;;;5.40;4.88;;;;;;;;;;5029980;28;20055;-78
2022/04/27 10:53:51;;;;;;;5.13;4.82;;;;;;;;;;5007230;28;20150;-77
2022/04/27 10:56:36;;;;;;;4.90;4.60;;;;;;;;;;5048077;28;20063;-78
2022/04/27 10:59:23;;;;;;;6.30;4.82;;;;;;;;;;5032097;28;20056;-78
2022/04/27 11:01:54;;;;;;;4.50;4.13;;;;;;;;;;5035733;28;20045;-78
2022/04/27 11:04:23;;;;;;;5.07;4.55;;;;;;;;;;5007795;28;20053;-79
2022/04/27 11:06:57;;;;;;;7.20;5.32;;;;;;;;;;5048462;28;20052;-78
2022/04/27 11:09:47;;;;;;;6.88;3.70;;;;;;;;;;5046612;28;20041;-78
2022/04/27 11:12:15;;;;;;;3.72;3.42;;;;;;;;;;5046779;28;20496;-79
2022/04/27 11:14:42;;;;;;;3.80;3.33;;;;;;;;;;5047251;28;20047;-78
2022/04/27 11:17:10;;;;;;;3.30;3.08;;;;;;;;;;5045478;28;20049;-78
2022/04/27 11:19:39;;;;;;;3.58;3.10;;;;;;;;;;5044967;28;20172;-78
2022/04/27 11:22:15;;;;;;;5.25;3.45;;;;;;;;;;5028155;28;20167;-78
2022/04/27 11:24:45;;;;;;;10.27;4.72;;;;;;;;;;5044537;28;20117;-78
2022/04/27 11:27:13;;;;;;;3.55;3.33;;;;;;;;;;5047445;28;20067;-78
2022/04/27 11:29:41;;;;;;;6.28;3.22;;;;;;;;;;5006891;28;20091;-79
2022/04/27 11:32:09;;;;;;;11.30;9.07;;;;;;;;;;5044110;28;20048;-78
2022/04/27 11:34:36;;;;;;;12.30;11.18;;;;;;;;;;5011672;28;20394;-78
2022/04/27 11:37:20;;;;;;;3.83;3.40;;;;;;;;;;5044078;28;20045;-78
2022/04/27 11:39:49;;;;;;;10.00;4.40;;;;;;;;;;5046122;28;20515;-77
2022/04/27 11:42:17;;;;;;;4.28;3.97;;;;;;;;;;5028310;28;20135;-78
2022/04/27 11:44:51;;;;;;;2.97;2.75;;;;;;;;;;5034003;28;20052;-78
2022/04/27 11:47:27;;;;;;;3.13;2.88;;;;;;;;;;5021741;28;20415;-78
2022/04/27 11:49:58;;;;;;;3.63;3.40;;;;;;;;;;5023026;28;20484;-78
2022/04/27 11:52:26;;;;;;;2.97;2.78;;;;;;;;;;5037840;28;20037;-79
2022/04/27 11:55:00;;;;;;;2.88;2.67;;;;;;;;;;5035921;28;20421;-77
2022/04/27 11:57:29;;;;;;;2.95;2.85;;;;;;;;;;5045143;28;20037;-78
2022/04/27 11:59:58;;;;;;;4.43;3.10;;;;;;;;;;5044665;28;20148;-78
2022/04/27 12:02:41;;;;;;;3.47;3.28;;;;;;;;;;5043033;28;20159;-79
2022/04/27 12:05:10;;;;;;;2.75;2.65;;;;;;;;;;5044949;28;20060;-78
2022/04/27 12:07:38;;;;;;;3.40;2.85;;;;;;;;;;5039924;28;20047;-78
2022/04/27 12:10:07;;;;;;;3.00;2.80;;;;;;;;;;5023323;28;20095;-79
2022/04/27 12:12:37;;;;;;;3.33;3.13;;;;;;;;;;5026732;28;20084;-78
2022/04/27 12:15:07;;;;;;;3.40;3.08;;;;;;;;;;5009137;28;20075;-78
2022/04/27 12:17:42;;;;;;;3.60;3.30;;;;;;;;;;5026239;28;20041;-78
2022/04/27 12:20:27;;;;;;;3.63;3.33;;;;;;;;;;5001752;28;20394;-78
2022/04/27 12:22:55;;;;;;;2.88;2.72;;;;;;;;;;5019325;28;20140;-79
2022/04/27 12:25:49;;;;;;;3.20;3.00;;;;;;;;;;5037029;28;20057;-79
2022/04/27 12:28:17;;;;;;;4.40;4.05;;;;;;;;;;5024833;28;20049;-78
2022/04/27 12:30:50;;;;;;;3.92;3.20;;;;;;;;;;5019057;28;20088;-78
2022/04/27 12:33:22;;;;;;;4.40;4.00;;;;;;;;;;5039637;28;20128;-77
2022/04/27 12:39:02;;;;;;;2.85;2.58;;;;;;;;;;5018526;28;20053;-79
2022/04/27 12:41:29;;;;;;;2.40;2.30;;;;;;;;;;5035900;28;20788;-78
2022/04/27 12:44:05;;;;;;;2.13;2.00;;;;;;;;;;5031314;28;20045;-78
2022/04/27 12:46:58;;;;;;;2.80;2.20;;;;;;;;;;5043298;28;20736;-78
2022/04/27 12:49:26;;;;;;;2.00;1.90;;;;;;;;;;5038600;28;20106;-78
2022/04/27 12:51:54;;;;;;;2.65;2.15;;;;;;;;;;5028509;28;20044;-78
2022/04/27 12:54:35;;;;;;;1.80;1.70;;;;;;;;;;5008591;28;20065;-78
2022/04/27 12:57:04;;;;;;;2.10;2.00;;;;;;;;;;5036156;28;20037;-79
2022/04/27 12:59:32;;;;;;;2.25;2.05;;;;;;;;;;5016993;28;20081;-77
2022/04/27 13:02:02;;;;;;;2.30;2.20;;;;;;;;;;5019065;28;20045;-78
2022/04/27 13:04:31;;;;;;;2.72;2.40;;;;;;;;;;5032668;28;20609;-78
2022/04/27 13:06:59;;;;;;;4.25;2.00;;;;;;;;;;5046044;28;20053;-78
2022/04/27 13:12:14;;;;;;;3.10;2.53;;;;;;;;;;5023368;28;20417;-78
2022/04/27 13:14:46;;;;;;;3.42;2.17;;;;;;;;;;5038896;28;20036;-78
2022/04/27 13:17:13;;;;;;;2.28;2.15;;;;;;;;;;5020576;28;20041;-78
2022/04/27 13:19:41;;;;;;;2.10;2.00;;;;;;;;;;5026673;28;20210;-78
2022/04/27 13:22:09;;;;;;;2.17;1.98;;;;;;;;;;5038558;28;20103;-78
2022/04/27 13:24:36;;;;;;;2.40;2.20;;;;;;;;;;5003072;28;20116;-78
2022/04/27 13:27:22;;;;;;;2.05;1.95;;;;;;;;;;5036624;28;20041;-78
2022/04/27 13:29:49;;;;;;;2.05;1.90;;;;;;;;;;5026645;28;20033;-79
2022/04/27 13:32:17;;;;;;;2.38;2.05;;;;;;;;;;5024400;28;20102;-78
2022/04/27 13:34:44;;;;;;;3.95;2.80;;;;;;;;;;5026623;28;20056;-78
2022/04/27 13:37:12;;;;;;;3.92;2.80;;;;;;;;;;5019334;28;20489;-78
2022/04/27 13:39:39;;;;;;;2.55;2.40;;;;;;;;;;5006306;28;20045;-78
2022/04/27 13:42:08;;;;;;;2.22;2.05;;;;;;;;;;5055613;28;20068;-78
2022/04/27 13:44:35;;;;;;;1.95;1.67;;;;;;;;;;5027836;28;20142;-78
2022/04/27 13:47:03;;;;;;;1.70;1.63;;;;;;;;;;5018827;28;20428;-79
2022/04/27 13:49:30;;;;;;;2.13;1.73;;;;;;;;;;5040199;28;20056;-78
2022/04/27 13:51:59;;;;;;;1.77;1.70;;;;;;;;;;5040482;28;20109;-78
2022/04/27 13:54:27;;;;;;;2.50;2.35;;;;;;;;;;5021167;28;20178;-78
2022/04/27 13:56:55;;;;;;;2.55;2.33;;;;;;;;;;5053114;28;20070;-78
2022/04/27 13:59:23;;;;;;;2.00;1.90;;;;;;;;;;5023266;28;20053;-79
2022/04/27 14:01:51;;;;;;;2.60;2.00;;;;;;;;;;5053478;28;20059;-78
2022/04/27 14:04:19;;;;;;;5.35;2.40;;;;;;;;;;5058112;28;20052;-78
2022/04/27 14:06:51;;;;;;;4.25;3.03;;;;;;;;;;5043643;28;20555;-78
2022/04/27 14:09:19;;;;;;;3.78;2.95;;;;;;;;;;5018412;28;20309;-78
2022/04/27 14:14:33;;;;;;;2.70;2.50;;;;;;;;;;5041580;28;20049;-78
2022/04/27 14:19:48;;;;;;;3.15;2.47;;;;;;;;;;5017140;28;20160;-78
2022/04/27 14:22:16;;;;;;;2.65;2.45;;;;;;;;;;5047168;28;20045;-79
2022/04/27 14:24:43;;;;;;;2.63;2.53;;;;;;;;;;5025926;28;20048;-78
2022/04/27 14:27:11;;;;;;;2.85;2.40;;;;;;;;;;5050796;28;20072;-79
2022/04/27 14:29:39;;;;;;;2.55;2.40;;;;;;;;;;5019937;28;20456;-78
2022/04/27 14:32:11;;;;;;;2.30;2.20;;;;;;;;;;5020714;28;20201;-78
2022/04/27 14:34:39;;;;;;;2.28;2.08;;;;;;;;;;5039393;28;20463;-78
2022/04/27 14:37:06;;;;;;;2.75;2.33;;;;;;;;;;5023885;28;20782;-78
2022/04/27 14:39:34;;;;;;;2.35;2.25;;;;;;;;;;5018498;28;20472;-78
2022/04/27 14:42:03;;;;;;;2.50;2.40;;;;;;;;;;5017828;28;20064;-78
2022/04/27 14:44:30;;;;;;;2.67;2.50;;;;;;;;;;5032604;28;20052;-78
2022/04/27 14:46:58;;;;;;;2.90;2.70;;;;;;;;;;5020293;28;20044;-78
2022/04/27 14:49:25;;;;;;;3.17;2.40;;;;;;;;;;5037004;28;20318;-78
2022/04/27 14:51:53;;;;;;;2.50;2.30;;;;;;;;;;5016702;28;20049;-77
2022/04/27 14:54:20;;;;;;;2.25;2.15;;;;;;;;;;5036631;28;20383;-77
2022/04/27 14:56:47;;;;;;;2.22;2.13;;;;;;;;;;5039780;28;20426;-78
2022/04/27 14:59:15;;;;;;;4.65;2.50;;;;;;;;;;5022244;28;20575;-77
2022/04/27 15:01:44;;;;;;;2.50;2.30;;;;;;;;;;5037365;28;20049;-78
2022/04/27 15:04:11;;;;;;;2.75;2.55;;;;;;;;;;5019129;28;20325;-78
2022/04/27 15:06:38;;;;;;;2.85;2.60;;;;;;;;;;5036129;28;20041;-78
2022/04/27 15:09:06;;;;;;;4.00;2.50;;;;;;;;;;5039092;28;20059;-77
2022/04/27 15:11:34;;;;;;;4.00;3.70;;;;;;;;;;5031334;28;20045;-76
2022/04/27 15:14:01;;;;;;;4.28;2.70;;;;;;;;;;5040353;28;20041;-79
2022/04/27 15:16:29;;;;;;;3.58;2.53;;;;;;;;;;5018715;28;20052;-78
2022/04/27 15:18:56;;;;;;;3.50;2.40;;;;;;;;;;5026682;28;20555;-78
2022/04/27 15:24:10;;;;;;;2.88;2.65;;;;;;;;;;5006290;28;20472;-80
2022/04/27 15:29:24;;;;;;;2.22;2.00;;;;;;;;;;5008189;28;20048;-78
2022/04/27 15:31:51;;;;;;;2.30;2.10;;;;;;;;;;5020627;28;20331;-78
2022/04/27 15:34:18;;;;;;;3.40;3.17;;;;;;;;;;5022591;28;20036;-78
2022/04/27 15:36:46;;;;;;;3.63;3.33;;;;;;;;;;5024829;28;20033;-78
2022/04/27 15:39:14;;;;;;;3.53;2.35;;;;;;;;;;4995226;28;20041;-77
2022/04/27 15:41:41;;;;;;;3.40;3.13;;;;;;;;;;5011704;28;20049;-78
2022/04/27 15:44:10;;;;;;;4.88;4.05;;;;;;;;;;5010022;28;20068;-77
2022/04/27 15:46:38;;;;;;;2.90;2.70;;;;;;;;;;5012564;28;20048;-77
2022/04/27 15:49:06;;;;;;;3.38;2.65;;;;;;;;;;5008921;28;20382;-78